Time;durP1;ratioP1;P1;durP2;ratioP2;P2;SDS_P1;SDS_P2;PMS_P1;PMS_P2;Temp;Humidity;BMP_temperature;BMP_pressure;BME280_temperature;BME280_humidity;BME280_pressure;Samples;Min_cycle;Max_cycle;Signal;HPM_P1;HPM_P2
2022/12/28 00:01:54;;;;;;;4.33;2.87;;;;;;;;;;5007477;28;20415;-41
2022/12/28 00:04:20;;;;;;;2.80;2.30;;;;;;;;;;5006244;28;20422;-42
2022/12/28 00:06:49;;;;;;;4.60;2.40;;;;;;;;;;5011433;28;20826;-42
2022/12/28 00:09:15;;;;;;;6.22;2.47;;;;;;;;;;5011045;28;20451;-42
2022/12/28 00:11:41;;;;;;;2.27;2.07;;;;;;;;;;5011864;28;20207;-42
2022/12/28 00:14:07;;;;;;;8.57;3.07;;;;;;;;;;5011898;28;20747;-41
2022/12/28 00:16:34;;;;;;;2.60;2.10;;;;;;;;;;5011227;28;20438;-42
2022/12/28 00:19:01;;;;;;;4.43;2.20;;;;;;;;;;5011460;28;20469;-42
2022/12/28 00:21:27;;;;;;;2.72;2.20;;;;;;;;;;5007082;28;20185;-42
2022/12/28 00:23:54;;;;;;;4.20;2.53;;;;;;;;;;5014682;28;20189;-42
2022/12/28 00:26:20;;;;;;;2.80;2.38;;;;;;;;;;5014960;28;20254;-42
2022/12/28 00:28:47;;;;;;;5.68;2.33;;;;;;;;;;5011397;28;20188;-42
2022/12/28 00:31:13;;;;;;;2.80;2.60;;;;;;;;;;5015125;28;20212;-41
2022/12/28 00:33:39;;;;;;;5.53;2.05;;;;;;;;;;5014736;28;20176;-41
2022/12/28 00:36:06;;;;;;;8.85;2.67;;;;;;;;;;5008503;28;20172;-41
2022/12/28 00:38:34;;;;;;;4.45;2.17;;;;;;;;;;5014357;28;20243;-42
2022/12/28 00:41:00;;;;;;;7.80;2.60;;;;;;;;;;5015040;28;20503;-41
2022/12/28 00:43:26;;;;;;;4.73;2.63;;;;;;;;;;5001698;28;20186;-42
2022/12/28 00:45:52;;;;;;;7.18;2.15;;;;;;;;;;5014548;28;20466;-41
2022/12/28 00:48:18;;;;;;;3.80;2.30;;;;;;;;;;5009361;28;20207;-41
2022/12/28 00:50:44;;;;;;;6.80;2.73;;;;;;;;;;5012920;28;20486;-42
2022/12/28 00:53:11;;;;;;;2.85;2.55;;;;;;;;;;5014927;28;20416;-41
2022/12/28 00:55:37;;;;;;;4.68;2.30;;;;;;;;;;5014738;28;20188;-41
2022/12/28 00:58:03;;;;;;;5.60;2.72;;;;;;;;;;5014338;28;20211;-41
2022/12/28 01:00:29;;;;;;;5.13;3.00;;;;;;;;;;5009400;28;20180;-41
2022/12/28 01:02:56;;;;;;;5.40;3.05;;;;;;;;;;5014568;28;20683;-41
2022/12/28 01:05:22;;;;;;;3.05;2.10;;;;;;;;;;5014538;28;20255;-42
2022/12/28 01:07:48;;;;;;;4.40;3.42;;;;;;;;;;5012195;28;20283;-42
2022/12/28 01:10:14;;;;;;;5.20;2.42;;;;;;;;;;5014382;28;20617;-42
2022/12/28 01:12:40;;;;;;;5.18;2.58;;;;;;;;;;5014293;28;20184;-41
2022/12/28 01:15:07;;;;;;;4.43;2.23;;;;;;;;;;5009178;28;20199;-40
2022/12/28 01:17:33;;;;;;;12.02;2.60;;;;;;;;;;5013968;28;20447;-42
2022/12/28 01:19:59;;;;;;;2.60;2.40;;;;;;;;;;5014211;28;20168;-41
2022/12/28 01:22:25;;;;;;;4.05;2.22;;;;;;;;;;5012491;28;20514;-41
2022/12/28 01:24:51;;;;;;;5.18;2.70;;;;;;;;;;5014692;28;20191;-42
2022/12/28 01:27:17;;;;;;;3.28;2.70;;;;;;;;;;5010129;28;20231;-41
2022/12/28 01:29:43;;;;;;;9.13;2.80;;;;;;;;;;5012638;28;20168;-41
2022/12/28 01:32:09;;;;;;;2.63;2.42;;;;;;;;;;5013224;28;20449;-41
2022/12/28 01:34:35;;;;;;;5.43;2.60;;;;;;;;;;5013977;28;20854;-41
2022/12/28 01:37:01;;;;;;;9.33;2.60;;;;;;;;;;5011933;28;20195;-41
2022/12/28 01:39:27;;;;;;;5.53;2.60;;;;;;;;;;5013807;28;20498;-41
2022/12/28 01:41:53;;;;;;;8.27;3.00;;;;;;;;;;5000542;28;20177;-41
2022/12/28 01:44:22;;;;;;;6.57;2.87;;;;;;;;;;5013899;28;20188;-41
2022/12/28 01:46:49;;;;;;;4.05;2.90;;;;;;;;;;5010715;28;20466;-41
2022/12/28 01:49:21;;;;;;;5.82;2.97;;;;;;;;;;5008752;28;20950;-42
2022/12/28 01:51:58;;;;;;;4.40;2.67;;;;;;;;;;5013008;28;20180;-41
2022/12/28 01:54:25;;;;;;;5.20;2.58;;;;;;;;;;5010884;28;20180;-41
2022/12/28 01:56:52;;;;;;;6.15;2.67;;;;;;;;;;5008344;28;20273;-40
2022/12/28 01:59:19;;;;;;;5.75;3.22;;;;;;;;;;5013501;28;20230;-42
2022/12/28 02:01:45;;;;;;;5.53;2.45;;;;;;;;;;5012873;28;20188;-41
2022/12/28 02:04:11;;;;;;;6.00;2.92;;;;;;;;;;5007202;28;20215;-41
2022/12/28 02:06:37;;;;;;;2.50;2.30;;;;;;;;;;5012837;28;20208;-42
2022/12/28 02:09:15;;;;;;;3.93;2.97;;;;;;;;;;4993415;28;20427;-41
2022/12/28 02:11:41;;;;;;;4.45;3.05;;;;;;;;;;5011795;28;20429;-41
2022/12/28 02:14:07;;;;;;;5.20;2.72;;;;;;;;;;5007035;28;20251;-41
2022/12/28 02:16:33;;;;;;;4.43;3.00;;;;;;;;;;5005047;28;20216;-42
2022/12/28 02:18:59;;;;;;;5.03;3.17;;;;;;;;;;5011663;28;20191;-42
2022/12/28 02:21:25;;;;;;;2.50;2.30;;;;;;;;;;5009885;28;20423;-42
2022/12/28 02:24:00;;;;;;;5.47;2.53;;;;;;;;;;5013199;28;20450;-41
2022/12/28 02:26:26;;;;;;;4.05;3.00;;;;;;;;;;5006663;28;20470;-42
2022/12/28 02:29:05;;;;;;;2.60;2.40;;;;;;;;;;5012858;28;20176;-43
2022/12/28 02:31:34;;;;;;;2.80;2.60;;;;;;;;;;5014266;28;20391;-44
2022/12/28 02:34:18;;;;;;;5.40;2.47;;;;;;;;;;5009283;28;20192;-43
2022/12/28 02:36:54;;;;;;;4.85;2.60;;;;;;;;;;5012544;28;20235;-42
2022/12/28 02:39:27;;;;;;;11.57;2.80;;;;;;;;;;5005886;28;20195;-43
2022/12/28 02:41:54;;;;;;;6.93;3.08;;;;;;;;;;5012517;28;20181;-43
2022/12/28 02:50:07;;;;;;;5.80;2.75;;;;;;;;;;5013292;28;20656;-43
2022/12/28 02:52:42;;;;;;;4.65;3.17;;;;;;;;;;5005823;28;20177;-43
2022/12/28 02:58:07;;;;;;;2.40;2.30;;;;;;;;;;5002970;28;20581;-44
2022/12/28 03:00:42;;;;;;;7.50;2.92;;;;;;;;;;5013140;28;20172;-44
2022/12/28 03:03:27;;;;;;;6.88;3.05;;;;;;;;;;5013205;28;20183;-42
2022/12/28 03:08:59;;;;;;;3.40;2.20;;;;;;;;;;5010617;28;20188;-43
2022/12/28 03:11:34;;;;;;;3.45;2.63;;;;;;;;;;5012701;28;20586;-43
2022/12/28 03:14:06;;;;;;;3.53;2.83;;;;;;;;;;4996961;28;20210;-43
2022/12/28 03:25:41;;;;;;;2.92;2.40;;;;;;;;;;5009869;28;20203;-43
2022/12/28 03:33:07;;;;;;;5.63;2.50;;;;;;;;;;5012500;28;20253;-44
2022/12/28 03:35:45;;;;;;;3.72;2.97;;;;;;;;;;5004701;28;20267;-43
2022/12/28 03:38:13;;;;;;;3.67;2.80;;;;;;;;;;5010940;28;20667;-44
2022/12/28 03:40:38;;;;;;;3.83;3.30;;;;;;;;;;5012109;28;20203;-43
2022/12/28 03:46:03;;;;;;;2.80;2.60;;;;;;;;;;4998032;28;21070;-43
2022/12/28 03:48:32;;;;;;;4.43;2.72;;;;;;;;;;5012050;28;20567;-43
2022/12/28 03:50:59;;;;;;;3.70;3.15;;;;;;;;;;5011899;28;20180;-43
2022/12/28 03:53:28;;;;;;;2.55;2.35;;;;;;;;;;5009850;28;20205;-43
2022/12/28 03:56:04;;;;;;;11.07;2.90;;;;;;;;;;5005825;28;20208;-43
2022/12/28 03:58:30;;;;;;;4.40;2.78;;;;;;;;;;5013028;28;20202;-43
2022/12/28 04:00:56;;;;;;;3.60;2.37;;;;;;;;;;5010133;28;20551;-43
2022/12/28 04:03:22;;;;;;;4.13;2.70;;;;;;;;;;5015655;28;20419;-42
2022/12/28 04:05:48;;;;;;;3.47;2.37;;;;;;;;;;5015538;28;20473;-43
2022/12/28 04:08:14;;;;;;;3.43;3.13;;;;;;;;;;5013188;28;20946;-44
2022/12/28 04:10:40;;;;;;;5.60;2.93;;;;;;;;;;5015629;28;20911;-43
2022/12/28 04:13:06;;;;;;;3.60;2.87;;;;;;;;;;5012846;28;21007;-43
2022/12/28 04:15:32;;;;;;;3.53;2.40;;;;;;;;;;5012770;28;20926;-43
2022/12/28 04:17:59;;;;;;;5.53;3.70;;;;;;;;;;5015335;28;20485;-43
2022/12/28 04:20:25;;;;;;;4.22;3.20;;;;;;;;;;5015738;28;20469;-43
2022/12/28 04:22:51;;;;;;;5.30;3.30;;;;;;;;;;5013514;28;20177;-43
2022/12/28 04:25:17;;;;;;;3.27;2.97;;;;;;;;;;5015858;28;20451;-43
2022/12/28 04:27:43;;;;;;;8.03;2.87;;;;;;;;;;5009723;28;20432;-43
2022/12/28 04:30:09;;;;;;;2.67;2.47;;;;;;;;;;5015563;28;20761;-44
2022/12/28 04:32:35;;;;;;;3.33;2.28;;;;;;;;;;5015531;28;20423;-44
2022/12/28 04:35:01;;;;;;;3.00;2.60;;;;;;;;;;5015280;28;20165;-43
2022/12/28 04:37:27;;;;;;;6.00;2.80;;;;;;;;;;5012359;28;20438;-43
2022/12/28 04:39:53;;;;;;;4.22;2.70;;;;;;;;;;5015224;28;20419;-42
2022/12/28 04:42:19;;;;;;;3.43;2.90;;;;;;;;;;5009423;28;20262;-43
2022/12/28 04:44:45;;;;;;;3.97;1.83;;;;;;;;;;5014941;28;20427;-43
2022/12/28 04:47:12;;;;;;;2.50;2.40;;;;;;;;;;5012394;28;20473;-43
2022/12/28 04:49:38;;;;;;;6.75;3.58;;;;;;;;;;5014791;28;20462;-43
2022/12/28 04:52:04;;;;;;;2.57;2.37;;;;;;;;;;5015081;28;20203;-43
2022/12/28 04:54:30;;;;;;;4.80;3.60;;;;;;;;;;5015383;28;20481;-43
2022/12/28 04:56:56;;;;;;;6.25;2.70;;;;;;;;;;5014609;28;20521;-43
2022/12/28 04:59:22;;;;;;;9.33;3.03;;;;;;;;;;5015117;28;20648;-43
2022/12/28 05:01:48;;;;;;;4.97;2.50;;;;;;;;;;5012690;28;20747;-44
2022/12/28 05:04:14;;;;;;;2.70;2.50;;;;;;;;;;5009476;28;20415;-43
2022/12/28 05:06:39;;;;;;;4.20;2.97;;;;;;;;;;5014740;28;20500;-43
2022/12/28 05:09:05;;;;;;;2.60;2.40;;;;;;;;;;5014220;28;20781;-43
2022/12/28 05:11:31;;;;;;;6.10;3.20;;;;;;;;;;5016316;28;20500;-42
2022/12/28 05:13:58;;;;;;;8.07;3.27;;;;;;;;;;5009874;28;20422;-42
2022/12/28 05:16:25;;;;;;;3.80;3.20;;;;;;;;;;5017296;28;20557;-43
2022/12/28 05:18:51;;;;;;;4.38;2.65;;;;;;;;;;5016994;28;20187;-43
2022/12/28 05:21:18;;;;;;;5.53;3.27;;;;;;;;;;5015427;28;20168;-43
2022/12/28 05:23:44;;;;;;;6.38;3.35;;;;;;;;;;5015877;28;20407;-43
2022/12/28 05:26:12;;;;;;;6.47;3.43;;;;;;;;;;5016705;28;20207;-43
2022/12/28 05:28:38;;;;;;;11.05;3.15;;;;;;;;;;5012255;28;20435;-44
2022/12/28 05:31:05;;;;;;;4.57;2.85;;;;;;;;;;5017323;28;20232;-44
2022/12/28 05:33:31;;;;;;;5.15;2.85;;;;;;;;;;5017434;28;20267;-42
2022/12/28 05:36:07;;;;;;;3.50;3.20;;;;;;;;;;5014480;28;20184;-43
2022/12/28 05:38:33;;;;;;;5.38;2.90;;;;;;;;;;5017234;28;20208;-43
2022/12/28 05:41:13;;;;;;;3.30;2.93;;;;;;;;;;5016612;28;20172;-43
2022/12/28 05:43:39;;;;;;;9.33;3.20;;;;;;;;;;5016746;28;20729;-44
2022/12/28 05:46:07;;;;;;;3.47;3.10;;;;;;;;;;5010263;28;20459;-43
2022/12/28 05:48:33;;;;;;;5.80;3.17;;;;;;;;;;5016760;28;20443;-43
2022/12/28 05:51:00;;;;;;;5.37;2.77;;;;;;;;;;5017164;28;20375;-43
2022/12/28 05:53:27;;;;;;;4.47;3.58;;;;;;;;;;5017208;28;20413;-43
2022/12/28 05:55:59;;;;;;;3.43;3.13;;;;;;;;;;5011489;28;20188;-43
2022/12/28 05:58:25;;;;;;;7.83;3.80;;;;;;;;;;5016893;28;20458;-43
2022/12/28 06:00:51;;;;;;;3.67;3.37;;;;;;;;;;5016997;28;20783;-43
2022/12/28 06:03:16;;;;;;;3.60;3.13;;;;;;;;;;5016829;28;20419;-43
2022/12/28 06:05:42;;;;;;;5.03;3.40;;;;;;;;;;5015364;28;20452;-43
2022/12/28 06:08:08;;;;;;;6.60;3.20;;;;;;;;;;5016682;28;20439;-45
2022/12/28 06:10:35;;;;;;;6.70;3.53;;;;;;;;;;5011367;28;20412;-44
2022/12/28 06:13:01;;;;;;;14.30;3.65;;;;;;;;;;5016556;28;20413;-43
2022/12/28 06:15:27;;;;;;;6.33;3.63;;;;;;;;;;5016777;28;20246;-45
2022/12/28 06:17:53;;;;;;;3.73;3.40;;;;;;;;;;5013632;28;20431;-44
2022/12/28 06:20:19;;;;;;;4.97;3.33;;;;;;;;;;5015677;28;20497;-44
2022/12/28 06:22:45;;;;;;;6.03;4.00;;;;;;;;;;5016065;28;20411;-44
2022/12/28 06:25:11;;;;;;;5.30;3.43;;;;;;;;;;5011084;28;20507;-44
2022/12/28 06:27:37;;;;;;;6.83;4.10;;;;;;;;;;5015140;28;20484;-44
2022/12/28 06:30:03;;;;;;;3.80;3.37;;;;;;;;;;5014291;28;20419;-44
2022/12/28 06:32:29;;;;;;;9.40;4.07;;;;;;;;;;5013720;28;20754;-43
2022/12/28 06:34:55;;;;;;;3.70;3.40;;;;;;;;;;5015872;28;20417;-43
2022/12/28 06:37:21;;;;;;;6.30;4.13;;;;;;;;;;5011608;28;20503;-44
2022/12/28 06:39:47;;;;;;;5.23;3.93;;;;;;;;;;5012471;28;20407;-44
2022/12/28 06:42:13;;;;;;;5.43;3.90;;;;;;;;;;5009122;28;20419;-44
2022/12/28 06:44:39;;;;;;;9.60;4.47;;;;;;;;;;5015041;28;20502;-44
2022/12/28 06:47:05;;;;;;;9.53;4.57;;;;;;;;;;5014293;28;20490;-43
2022/12/28 06:49:30;;;;;;;8.67;4.13;;;;;;;;;;5011363;28;20912;-43
2022/12/28 06:51:56;;;;;;;4.37;3.50;;;;;;;;;;5014907;28;20478;-43
2022/12/28 06:54:22;;;;;;;6.40;3.30;;;;;;;;;;5009347;28;20416;-43
2022/12/28 06:56:48;;;;;;;3.80;3.50;;;;;;;;;;5013846;28;20544;-44
2022/12/28 06:59:14;;;;;;;4.53;3.83;;;;;;;;;;5014683;28;20419;-43
2022/12/28 07:01:43;;;;;;;7.20;3.87;;;;;;;;;;5014934;28;20410;-44
2022/12/28 07:04:09;;;;;;;5.15;3.95;;;;;;;;;;5003472;28;20941;-43
2022/12/28 07:06:37;;;;;;;4.82;4.38;;;;;;;;;;5013120;28;20207;-43
2022/12/28 07:09:05;;;;;;;6.40;3.83;;;;;;;;;;5013850;28;20173;-43
2022/12/28 07:11:31;;;;;;;4.17;3.37;;;;;;;;;;5015192;28;20706;-43
2022/12/28 07:13:58;;;;;;;7.27;3.93;;;;;;;;;;5010974;28;20514;-44
2022/12/28 07:16:24;;;;;;;5.40;3.80;;;;;;;;;;5013756;28;20919;-43
2022/12/28 07:18:50;;;;;;;5.27;3.70;;;;;;;;;;5007052;28;20419;-43
2022/12/28 07:21:20;;;;;;;8.27;3.70;;;;;;;;;;5013596;28;20826;-44
2022/12/28 07:23:46;;;;;;;7.57;4.50;;;;;;;;;;5014778;28;20419;-44
2022/12/28 07:26:13;;;;;;;4.03;3.63;;;;;;;;;;5012296;28;20505;-43
2022/12/28 07:28:40;;;;;;;4.40;4.00;;;;;;;;;;5012818;28;20481;-43
2022/12/28 07:31:06;;;;;;;4.20;3.80;;;;;;;;;;5013481;28;20892;-44
2022/12/28 07:33:33;;;;;;;4.80;3.50;;;;;;;;;;5007165;28;20498;-43
2022/12/28 07:35:59;;;;;;;3.77;3.13;;;;;;;;;;5014424;28;20752;-44
2022/12/28 07:38:25;;;;;;;5.63;3.80;;;;;;;;;;5014270;28;20500;-43
2022/12/28 07:40:51;;;;;;;10.77;4.03;;;;;;;;;;5013884;28;20733;-43
2022/12/28 07:43:17;;;;;;;5.83;3.90;;;;;;;;;;5010053;28;20923;-44
2022/12/28 07:45:43;;;;;;;9.33;4.10;;;;;;;;;;5011482;28;20463;-44
2022/12/28 07:48:09;;;;;;;4.70;4.00;;;;;;;;;;5019273;28;20493;-43
2022/12/28 07:50:35;;;;;;;4.93;3.80;;;;;;;;;;5013744;28;20790;-44
2022/12/28 07:53:01;;;;;;;3.80;3.40;;;;;;;;;;5012341;28;20477;-43
2022/12/28 07:55:30;;;;;;;6.37;4.27;;;;;;;;;;5005506;28;20435;-44
2022/12/28 07:57:55;;;;;;;5.63;4.40;;;;;;;;;;5006797;28;20438;-43
2022/12/28 08:00:21;;;;;;;4.10;3.77;;;;;;;;;;5009784;28;20415;-44
2022/12/28 08:02:47;;;;;;;5.97;4.50;;;;;;;;;;5012506;28;20463;-44
2022/12/28 08:05:13;;;;;;;8.60;4.80;;;;;;;;;;5012599;28;20503;-43
2022/12/28 08:07:39;;;;;;;5.13;4.00;;;;;;;;;;5011135;28;20467;-43
2022/12/28 08:10:06;;;;;;;9.07;4.70;;;;;;;;;;5006370;28;20414;-43
2022/12/28 08:12:32;;;;;;;6.00;4.47;;;;;;;;;;5013815;28;20415;-44
2022/12/28 08:15:00;;;;;;;8.30;3.90;;;;;;;;;;5010489;28;20415;-44
2022/12/28 08:17:25;;;;;;;6.00;4.43;;;;;;;;;;5008006;28;20439;-44
2022/12/28 08:19:54;;;;;;;8.30;4.27;;;;;;;;;;5012570;28;20412;-43
2022/12/28 08:22:20;;;;;;;5.63;4.97;;;;;;;;;;5006060;28;20417;-44
2022/12/28 08:24:46;;;;;;;6.70;5.17;;;;;;;;;;5010315;28;20428;-44
2022/12/28 08:27:12;;;;;;;7.10;5.50;;;;;;;;;;5012322;28;20466;-43
2022/12/28 08:29:38;;;;;;;8.03;5.70;;;;;;;;;;5012621;28;20948;-44
2022/12/28 08:32:04;;;;;;;6.83;5.47;;;;;;;;;;5007257;28;20407;-44
2022/12/28 08:34:30;;;;;;;6.30;5.13;;;;;;;;;;5011974;28;20424;-43
2022/12/28 08:36:56;;;;;;;5.77;4.77;;;;;;;;;;5004637;28;20521;-43
2022/12/28 08:39:22;;;;;;;9.17;4.90;;;;;;;;;;5011526;28;20427;-44
2022/12/28 08:41:48;;;;;;;6.80;5.40;;;;;;;;;;5011237;28;20423;-44
2022/12/28 08:44:14;;;;;;;10.03;6.67;;;;;;;;;;5016973;28;20417;-44
2022/12/28 08:46:40;;;;;;;10.50;6.37;;;;;;;;;;5015820;28;20959;-43
2022/12/28 08:49:06;;;;;;;6.57;5.87;;;;;;;;;;5010507;28;20421;-44
2022/12/28 08:51:33;;;;;;;9.20;6.30;;;;;;;;;;5016318;28;20414;-44
2022/12/28 08:54:00;;;;;;;9.13;6.17;;;;;;;;;;5016049;28;20425;-44
2022/12/28 08:56:27;;;;;;;7.00;6.30;;;;;;;;;;5012812;28;20507;-44
2022/12/28 08:58:53;;;;;;;7.90;5.83;;;;;;;;;;5015348;28;20412;-44
2022/12/28 09:01:20;;;;;;;7.00;6.00;;;;;;;;;;5010708;28;20413;-44
2022/12/28 09:03:47;;;;;;;14.90;4.80;;;;;;;;;;5014670;28;20426;-44
2022/12/28 09:06:17;;;;;;;8.00;6.03;;;;;;;;;;5015471;28;20978;-44
2022/12/28 09:08:44;;;;;;;14.30;6.00;;;;;;;;;;5014555;28;20417;-43
2022/12/28 09:11:11;;;;;;;6.43;5.60;;;;;;;;;;5012104;28;20419;-44
2022/12/28 09:13:37;;;;;;;6.50;5.13;;;;;;;;;;5014795;28;20474;-44
2022/12/28 09:16:07;;;;;;;8.40;5.47;;;;;;;;;;5008826;28;20417;-44
2022/12/28 09:18:34;;;;;;;12.93;5.20;;;;;;;;;;5014677;28;21011;-43
2022/12/28 09:21:12;;;;;;;6.47;5.43;;;;;;;;;;5015353;28;20775;-44
2022/12/28 09:23:38;;;;;;;6.30;5.20;;;;;;;;;;5012343;28;20421;-42
2022/12/28 09:26:05;;;;;;;5.93;4.43;;;;;;;;;;5014539;28;20603;-42
2022/12/28 09:28:31;;;;;;;5.30;4.80;;;;;;;;;;5013654;28;20508;-43
2022/12/28 09:30:57;;;;;;;9.73;4.47;;;;;;;;;;5008252;28;20413;-42
2022/12/28 09:34:10;;;;;;;8.93;4.43;;;;;;;;;;5014057;28;20917;-42
2022/12/28 09:36:09;;;;;;;4.77;4.37;;;;;;;;;;4993794;28;20434;-42
2022/12/28 09:38:35;;;;;;;3.60;3.37;;;;;;;;;;5011208;28;20458;-42
2022/12/28 09:41:01;;;;;;;6.13;3.90;;;;;;;;;;5009489;28;20418;-42
2022/12/28 09:43:27;;;;;;;4.17;3.87;;;;;;;;;;5015084;28;20515;-44
2022/12/28 09:45:53;;;;;;;3.73;3.37;;;;;;;;;;5011438;28;20452;-44
2022/12/28 09:48:22;;;;;;;6.10;3.37;;;;;;;;;;5011815;28;20432;-42
2022/12/28 09:50:49;;;;;;;4.97;3.70;;;;;;;;;;4997095;28;20911;-42
2022/12/28 09:53:15;;;;;;;6.00;3.50;;;;;;;;;;5015283;28;20927;-42
2022/12/28 09:55:50;;;;;;;8.53;3.67;;;;;;;;;;5017793;28;20408;-44
2022/12/28 09:58:17;;;;;;;9.27;3.30;;;;;;;;;;5015488;28;20486;-43
2022/12/28 10:00:59;;;;;;;5.50;3.43;;;;;;;;;;4997115;28;20440;-44
2022/12/28 10:03:35;;;;;;;5.73;3.73;;;;;;;;;;5016151;28;20450;-44
2022/12/28 10:06:01;;;;;;;5.67;4.03;;;;;;;;;;5008243;28;20515;-42
2022/12/28 10:08:28;;;;;;;4.00;3.60;;;;;;;;;;5016546;28;20444;-42
2022/12/28 10:11:00;;;;;;;4.60;4.30;;;;;;;;;;5006947;28;20715;-43
2022/12/28 10:13:28;;;;;;;5.10;3.00;;;;;;;;;;5000158;28;20413;-42
2022/12/28 10:15:55;;;;;;;5.20;3.20;;;;;;;;;;5005212;28;20422;-42
2022/12/28 10:18:25;;;;;;;3.00;2.80;;;;;;;;;;5013736;28;20972;-43
2022/12/28 10:20:51;;;;;;;4.10;3.80;;;;;;;;;;5017856;28;20927;-43
2022/12/28 10:23:19;;;;;;;4.20;3.20;;;;;;;;;;5014012;28;20774;-42
2022/12/28 10:25:46;;;;;;;4.33;2.93;;;;;;;;;;5013953;28;20412;-42
2022/12/28 10:28:12;;;;;;;2.33;2.23;;;;;;;;;;5013664;28;20426;-43
2022/12/28 10:30:49;;;;;;;4.93;3.07;;;;;;;;;;5013579;28;20406;-41
2022/12/28 10:33:18;;;;;;;4.90;2.70;;;;;;;;;;5013502;28;20446;-41
2022/12/28 10:35:52;;;;;;;2.93;2.73;;;;;;;;;;5013366;28;20411;-42
2022/12/28 10:38:26;;;;;;;3.13;2.80;;;;;;;;;;5013551;28;20443;-42
2022/12/28 10:41:04;;;;;;;2.77;2.57;;;;;;;;;;5013293;28;20459;-43
2022/12/28 10:43:33;;;;;;;3.03;2.30;;;;;;;;;;5012153;28;21006;-43
2022/12/28 10:46:00;;;;;;;4.87;2.90;;;;;;;;;;5011723;28;20933;-43
2022/12/28 10:48:27;;;;;;;2.90;2.40;;;;;;;;;;5013053;28;20818;-42
2022/12/28 10:51:11;;;;;;;3.33;2.60;;;;;;;;;;5012646;28;20439;-43
2022/12/28 10:54:07;;;;;;;2.47;2.37;;;;;;;;;;5012815;28;20414;-42
2022/12/28 10:56:43;;;;;;;2.90;2.70;;;;;;;;;;4984627;28;20873;-42
2022/12/28 10:59:09;;;;;;;3.03;2.63;;;;;;;;;;5012961;28;20419;-42
2022/12/28 11:01:35;;;;;;;2.63;2.27;;;;;;;;;;5012588;28;20912;-42
2022/12/28 11:04:04;;;;;;;5.70;2.67;;;;;;;;;;5012709;28;20436;-42
2022/12/28 11:06:31;;;;;;;2.70;2.33;;;;;;;;;;5011908;28;20468;-42
2022/12/28 11:09:17;;;;;;;2.57;2.03;;;;;;;;;;5012713;28;20419;-42
2022/12/28 11:11:44;;;;;;;2.37;2.20;;;;;;;;;;5012433;28;20484;-43
2022/12/28 11:14:30;;;;;;;3.53;2.70;;;;;;;;;;5012490;28;20468;-42
2022/12/28 11:16:57;;;;;;;3.43;2.20;;;;;;;;;;5011951;28;20448;-42
2022/12/28 11:19:24;;;;;;;2.73;2.53;;;;;;;;;;5012473;28;20446;-41
2022/12/28 11:21:51;;;;;;;2.30;2.20;;;;;;;;;;5012409;28;20797;-42
2022/12/28 11:24:18;;;;;;;2.03;1.83;;;;;;;;;;5012325;28;20497;-42
2022/12/28 11:26:48;;;;;;;1.97;1.87;;;;;;;;;;5012108;28;20472;-42
2022/12/28 11:29:16;;;;;;;2.50;1.97;;;;;;;;;;5012195;28;20545;-42
2022/12/28 11:31:45;;;;;;;1.80;1.70;;;;;;;;;;5012208;28;20414;-41
2022/12/28 11:34:16;;;;;;;2.40;1.90;;;;;;;;;;5012249;28;20910;-43
2022/12/28 11:36:42;;;;;;;1.80;1.70;;;;;;;;;;5012080;28;20516;-41
2022/12/28 11:39:40;;;;;;;1.83;1.73;;;;;;;;;;5012240;28;20560;-41
2022/12/28 11:42:07;;;;;;;2.03;1.90;;;;;;;;;;4968962;28;20902;-42
2022/12/28 11:44:39;;;;;;;2.63;1.93;;;;;;;;;;5012104;28;20765;-42
2022/12/28 11:47:19;;;;;;;2.30;2.20;;;;;;;;;;5011878;28;20480;-41
2022/12/28 11:49:46;;;;;;;2.27;2.07;;;;;;;;;;4996506;28;20934;-41
2022/12/28 11:52:33;;;;;;;2.50;2.30;;;;;;;;;;5011983;28;20400;-41
2022/12/28 11:55:17;;;;;;;2.20;2.10;;;;;;;;;;5010820;28;20418;-42
2022/12/28 11:57:43;;;;;;;3.57;2.27;;;;;;;;;;5011437;28;20956;-41
2022/12/28 12:00:19;;;;;;;3.20;2.17;;;;;;;;;;5011944;28;20426;-41
2022/12/28 12:02:49;;;;;;;2.30;2.20;;;;;;;;;;5011728;28;20906;-42
2022/12/28 12:05:33;;;;;;;3.67;2.53;;;;;;;;;;5012234;28;20424;-42
2022/12/28 12:07:59;;;;;;;2.87;2.63;;;;;;;;;;5011863;28;20446;-41
2022/12/28 12:10:28;;;;;;;3.50;2.27;;;;;;;;;;5011146;28;20905;-42
2022/12/28 12:12:54;;;;;;;4.33;2.63;;;;;;;;;;5011681;28;20896;-42
2022/12/28 12:15:21;;;;;;;2.57;2.40;;;;;;;;;;5011621;28;20512;-43
2022/12/28 12:17:56;;;;;;;3.30;2.67;;;;;;;;;;5014894;28;20800;-40
2022/12/28 12:20:22;;;;;;;3.00;2.70;;;;;;;;;;5015392;28;20412;-44
2022/12/28 12:22:51;;;;;;;2.00;1.90;;;;;;;;;;5015555;28;20397;-42
2022/12/28 12:25:20;;;;;;;3.37;3.07;;;;;;;;;;5015812;28;20768;-44
2022/12/28 12:27:53;;;;;;;3.13;2.80;;;;;;;;;;5015066;28;20475;-40
2022/12/28 12:30:20;;;;;;;2.90;2.37;;;;;;;;;;5016512;28;20423;-42
2022/12/28 12:33:02;;;;;;;3.30;2.57;;;;;;;;;;5014632;28;20412;-41
2022/12/28 12:35:29;;;;;;;3.13;2.90;;;;;;;;;;5015818;28;20418;-42
2022/12/28 12:37:55;;;;;;;3.50;2.80;;;;;;;;;;5010266;28;20442;-41
2022/12/28 12:40:36;;;;;;;3.77;2.50;;;;;;;;;;5015778;28;20504;-41
2022/12/28 12:43:24;;;;;;;2.93;2.73;;;;;;;;;;5007573;28;20924;-41
2022/12/28 12:46:09;;;;;;;3.37;3.17;;;;;;;;;;5013365;28;20424;-42
2022/12/28 12:48:47;;;;;;;4.03;2.50;;;;;;;;;;5014407;28;20447;-42
2022/12/28 12:51:25;;;;;;;2.73;2.53;;;;;;;;;;5015019;28;20413;-43
2022/12/28 12:54:06;;;;;;;4.53;3.00;;;;;;;;;;5013665;28;20509;-43
2022/12/28 12:56:32;;;;;;;3.30;3.00;;;;;;;;;;5011744;28;20472;-42
2022/12/28 12:59:10;;;;;;;3.10;2.73;;;;;;;;;;5015189;28;20456;-41
2022/12/28 13:01:44;;;;;;;7.47;2.70;;;;;;;;;;5014275;28;20834;-43
2022/12/28 13:04:19;;;;;;;3.33;2.50;;;;;;;;;;5011726;28;20459;-42
2022/12/28 13:06:45;;;;;;;6.57;3.10;;;;;;;;;;5014683;28;20985;-42
2022/12/28 13:09:16;;;;;;;3.00;2.13;;;;;;;;;;5008511;28;20471;-42
2022/12/28 13:11:42;;;;;;;2.50;2.30;;;;;;;;;;5014885;28;20430;-43
2022/12/28 13:14:19;;;;;;;3.20;2.03;;;;;;;;;;5015332;28;20414;-42
2022/12/28 13:16:50;;;;;;;3.70;2.33;;;;;;;;;;5011411;28;20803;-43
2022/12/28 13:19:18;;;;;;;2.17;2.07;;;;;;;;;;5015149;28;20422;-42
2022/12/28 13:21:49;;;;;;;6.50;2.80;;;;;;;;;;5013989;28;20417;-42
2022/12/28 13:24:25;;;;;;;2.73;2.30;;;;;;;;;;5010035;28;20556;-43
2022/12/28 13:26:51;;;;;;;3.67;2.17;;;;;;;;;;5014463;28;20544;-42
2022/12/28 13:29:19;;;;;;;2.40;2.20;;;;;;;;;;5013447;28;20543;-42
2022/12/28 13:31:48;;;;;;;4.00;2.63;;;;;;;;;;5008936;28;20533;-42
2022/12/28 13:34:16;;;;;;;4.60;2.87;;;;;;;;;;5023317;28;20499;-42
2022/12/28 13:36:59;;;;;;;3.07;2.30;;;;;;;;;;5022948;28;20527;-43
2022/12/28 13:39:29;;;;;;;3.80;2.30;;;;;;;;;;5018855;28;20504;-42
2022/12/28 13:41:59;;;;;;;2.27;2.07;;;;;;;;;;5005447;28;20921;-42
2022/12/28 13:44:43;;;;;;;2.90;2.07;;;;;;;;;;5012156;28;20794;-42
2022/12/28 13:47:28;;;;;;;6.13;1.83;;;;;;;;;;5025447;28;20472;-42
2022/12/28 13:49:58;;;;;;;2.07;1.97;;;;;;;;;;5021644;28;20504;-42
2022/12/28 13:52:33;;;;;;;1.93;1.83;;;;;;;;;;5013805;28;20418;-42
2022/12/28 13:55:03;;;;;;;6.13;2.53;;;;;;;;;;5006581;28;20835;-42
2022/12/28 13:57:31;;;;;;;3.10;2.30;;;;;;;;;;5010921;28;20433;-43
2022/12/28 13:59:57;;;;;;;3.20;2.60;;;;;;;;;;5013664;28;20415;-42
2022/12/28 14:02:23;;;;;;;2.60;2.40;;;;;;;;;;5010348;28;20421;-42
2022/12/28 14:04:50;;;;;;;4.07;2.50;;;;;;;;;;5019847;28;20473;-41
2022/12/28 14:07:18;;;;;;;2.63;2.10;;;;;;;;;;5011654;28;20470;-42
2022/12/28 14:09:45;;;;;;;3.23;2.97;;;;;;;;;;5007396;28;20460;-41
2022/12/28 14:12:14;;;;;;;2.30;2.10;;;;;;;;;;5012989;28;20422;-42
2022/12/28 14:14:40;;;;;;;2.70;2.47;;;;;;;;;;5031393;28;20408;-42
2022/12/28 14:17:06;;;;;;;3.07;2.50;;;;;;;;;;5013368;28;20437;-43
2022/12/28 14:19:33;;;;;;;2.70;2.50;;;;;;;;;;5022861;28;20463;-42
2022/12/28 14:21:59;;;;;;;7.00;2.60;;;;;;;;;;5013012;28;20456;-43
2022/12/28 14:24:25;;;;;;;3.63;2.40;;;;;;;;;;5011784;28;20411;-42
2022/12/28 14:26:59;;;;;;;4.60;2.90;;;;;;;;;;5012528;28;20468;-43
2022/12/28 14:29:32;;;;;;;5.87;2.40;;;;;;;;;;5012016;28;20933;-42
2022/12/28 14:32:00;;;;;;;3.83;2.53;;;;;;;;;;5012938;28;20489;-42
2022/12/28 14:34:27;;;;;;;2.37;2.17;;;;;;;;;;5013098;28;20425;-42
2022/12/28 14:36:54;;;;;;;2.90;2.70;;;;;;;;;;5008392;28;20429;-41
2022/12/28 14:39:26;;;;;;;3.03;2.73;;;;;;;;;;5012189;28;20982;-42
2022/12/28 14:41:53;;;;;;;2.70;2.50;;;;;;;;;;5009653;28;20484;-42
2022/12/28 14:44:26;;;;;;;7.00;2.90;;;;;;;;;;5011605;28;20509;-42
2022/12/28 14:46:53;;;;;;;2.60;2.30;;;;;;;;;;5006178;28;20516;-41
2022/12/28 14:49:28;;;;;;;2.50;2.30;;;;;;;;;;5015869;28;20526;-42
2022/12/28 14:52:09;;;;;;;3.33;2.53;;;;;;;;;;5023477;28;20425;-42
2022/12/28 14:54:46;;;;;;;3.70;2.23;;;;;;;;;;4993355;28;20415;-42
2022/12/28 14:57:21;;;;;;;4.20;2.67;;;;;;;;;;5012131;28;20434;-42
2022/12/28 14:59:50;;;;;;;3.80;2.80;;;;;;;;;;5012065;28;20423;-42
2022/12/28 15:02:34;;;;;;;4.00;2.47;;;;;;;;;;5012316;28;20416;-42
2022/12/28 15:05:00;;;;;;;5.93;2.67;;;;;;;;;;5012435;28;20563;-42
2022/12/28 15:07:26;;;;;;;4.00;2.40;;;;;;;;;;5011686;28;20855;-43
2022/12/28 15:09:52;;;;;;;3.40;2.67;;;;;;;;;;5012131;28;20414;-42
2022/12/28 15:12:20;;;;;;;3.67;2.87;;;;;;;;;;5012310;28;20418;-42
2022/12/28 15:14:46;;;;;;;9.03;2.43;;;;;;;;;;5011468;28;20437;-42
2022/12/28 15:17:13;;;;;;;6.30;2.27;;;;;;;;;;5011967;28;20494;-43
2022/12/28 15:19:41;;;;;;;2.90;2.30;;;;;;;;;;5012061;28;20859;-43
2022/12/28 15:22:07;;;;;;;2.73;2.53;;;;;;;;;;5012167;28;20401;-42